sensor_id;sensor_type;location;lat;lon;timestamp;temperature;humidity
13310;DHT22;6723;48.256;16.402;2024-01-10T00:02:06;-6.60;99.90
13310;DHT22;6723;48.256;16.402;2024-01-10T00:04:32;-6.70;99.90
13310;DHT22;6723;48.256;16.402;2024-01-10T00:06:57;-6.70;99.90
13310;DHT22;6723;48.256;16.402;2024-01-10T00:09:23;-6.60;99.90
13310;DHT22;6723;48.256;16.402;2024-01-10T00:11:49;-6.70;99.90
13310;DHT22;6723;48.256;16.402;2024-01-10T00:14:15;-6.80;99.90
13310;DHT22;6723;48.256;16.402;2024-01-10T00:16:44;-6.80;99.90
13310;DHT22;6723;48.256;16.402;2024-01-10T00:19:10;-6.80;99.90
13310;DHT22;6723;48.256;16.402;2024-01-10T00:21:35;-6.80;99.90
13310;DHT22;6723;48.256;16.402;2024-01-10T00:24:01;-6.80;99.90
13310;DHT22;6723;48.256;16.402;2024-01-10T00:26:27;-6.90;99.90
13310;DHT22;6723;48.256;16.402;2024-01-10T00:28:53;-6.90;99.90
13310;DHT22;6723;48.256;16.402;2024-01-10T00:31:19;-6.90;99.90
13310;DHT22;6723;48.256;16.402;2024-01-10T00:33:44;-6.90;99.90
13310;DHT22;6723;48.256;16.402;2024-01-10T00:36:10;-6.90;99.90
13310;DHT22;6723;48.256;16.402;2024-01-10T00:38:37;-6.90;99.90
13310;DHT22;6723;48.256;16.402;2024-01-10T00:41:02;-6.90;99.90
13310;DHT22;6723;48.256;16.402;2024-01-10T00:43:28;-6.90;99.90
13310;DHT22;6723;48.256;16.402;2024-01-10T00:45:54;-6.90;99.90
13310;DHT22;6723;48.256;16.402;2024-01-10T00:48:20;-6.90;99.90
13310;DHT22;6723;48.256;16.402;2024-01-10T00:50:46;-7.00;99.90
13310;DHT22;6723;48.256;16.402;2024-01-10T00:53:12;-6.90;99.90
13310;DHT22;6723;48.256;16.402;2024-01-10T00:55:38;-6.90;99.90
13310;DHT22;6723;48.256;16.402;2024-01-10T00:58:04;-6.90;99.90
13310;DHT22;6723;48.256;16.402;2024-01-10T01:00:32;-6.90;99.90
13310;DHT22;6723;48.256;16.402;2024-01-10T01:02:58;-6.90;99.90
13310;DHT22;6723;48.256;16.402;2024-01-10T01:05:23;-6.90;99.90
13310;DHT22;6723;48.256;16.402;2024-01-10T01:07:49;-6.90;99.90
13310;DHT22;6723;48.256;16.402;2024-01-10T01:10:15;-6.90;99.90
13310;DHT22;6723;48.256;16.402;2024-01-10T01:12:41;-6.90;99.90
13310;DHT22;6723;48.256;16.402;2024-01-10T01:15:07;-6.90;99.90
13310;DHT22;6723;48.256;16.402;2024-01-10T01:17:33;-7.00;99.90
13310;DHT22;6723;48.256;16.402;2024-01-10T01:20:03;-7.00;99.90
13310;DHT22;6723;48.256;16.402;2024-01-10T01:22:30;-7.00;99.90
13310;DHT22;6723;48.256;16.402;2024-01-10T01:24:57;-7.00;99.90
13310;DHT22;6723;48.256;16.402;2024-01-10T01:27:23;-7.00;99.90
13310;DHT22;6723;48.256;16.402;2024-01-10T01:29:49;-7.10;99.90
13310;DHT22;6723;48.256;16.402;2024-01-10T01:32:15;-7.10;99.90
13310;DHT22;6723;48.256;16.402;2024-01-10T01:34:41;-7.10;99.90
13310;DHT22;6723;48.256;16.402;2024-01-10T01:37:07;-7.10;99.90
13310;DHT22;6723;48.256;16.402;2024-01-10T01:39:32;-7.20;99.90
13310;DHT22;6723;48.256;16.402;2024-01-10T01:41:58;-7.20;99.90
13310;DHT22;6723;48.256;16.402;2024-01-10T01:44:24;-7.20;99.90
13310;DHT22;6723;48.256;16.402;2024-01-10T01:46:50;-7.10;99.90
13310;DHT22;6723;48.256;16.402;2024-01-10T01:49:16;-7.10;99.90
13310;DHT22;6723;48.256;16.402;2024-01-10T01:51:46;-7.10;99.90
13310;DHT22;6723;48.256;16.402;2024-01-10T01:54:12;-7.20;99.90
13310;DHT22;6723;48.256;16.402;2024-01-10T01:56:40;-7.20;99.90
13310;DHT22;6723;48.256;16.402;2024-01-10T01:59:06;-7.20;99.90
13310;DHT22;6723;48.256;16.402;2024-01-10T02:01:32;-7.20;99.90
13310;DHT22;6723;48.256;16.402;2024-01-10T02:04:01;-7.20;99.90
13310;DHT22;6723;48.256;16.402;2024-01-10T02:06:27;-7.20;99.90
13310;DHT22;6723;48.256;16.402;2024-01-10T02:08:54;-7.20;99.90
13310;DHT22;6723;48.256;16.402;2024-01-10T02:11:20;-7.20;99.90
13310;DHT22;6723;48.256;16.402;2024-01-10T02:13:47;-7.20;99.90
13310;DHT22;6723;48.256;16.402;2024-01-10T02:16:14;-7.20;99.90
13310;DHT22;6723;48.256;16.402;2024-01-10T02:18:40;-7.30;99.90
13310;DHT22;6723;48.256;16.402;2024-01-10T02:21:06;-7.20;99.90
13310;DHT22;6723;48.256;16.402;2024-01-10T02:23:32;-7.30;99.90
13310;DHT22;6723;48.256;16.402;2024-01-10T02:25:58;-7.40;99.90
13310;DHT22;6723;48.256;16.402;2024-01-10T02:28:23;-7.30;99.90
13310;DHT22;6723;48.256;16.402;2024-01-10T02:30:53;-7.40;99.90
13310;DHT22;6723;48.256;16.402;2024-01-10T02:33:20;-7.40;99.90
13310;DHT22;6723;48.256;16.402;2024-01-10T02:35:46;-7.40;99.90
13310;DHT22;6723;48.256;16.402;2024-01-10T02:38:15;-7.30;99.90
13310;DHT22;6723;48.256;16.402;2024-01-10T02:40:41;-7.30;99.90
13310;DHT22;6723;48.256;16.402;2024-01-10T02:43:06;-7.30;99.90
13310;DHT22;6723;48.256;16.402;2024-01-10T02:45:33;-7.40;99.90
13310;DHT22;6723;48.256;16.402;2024-01-10T02:47:59;-7.40;99.90
13310;DHT22;6723;48.256;16.402;2024-01-10T02:50:25;-7.40;99.90
13310;DHT22;6723;48.256;16.402;2024-01-10T02:52:51;-7.40;99.90
13310;DHT22;6723;48.256;16.402;2024-01-10T02:55:16;-7.40;99.90
13310;DHT22;6723;48.256;16.402;2024-01-10T02:57:42;-7.40;99.90
13310;DHT22;6723;48.256;16.402;2024-01-10T03:00:09;-7.40;99.90
13310;DHT22;6723;48.256;16.402;2024-01-10T03:02:35;-7.40;99.90
13310;DHT22;6723;48.256;16.402;2024-01-10T03:05:00;-7.40;99.90
13310;DHT22;6723;48.256;16.402;2024-01-10T03:07:26;-7.40;99.90
13310;DHT22;6723;48.256;16.402;2024-01-10T03:09:52;-7.40;99.90
13310;DHT22;6723;48.256;16.402;2024-01-10T03:12:18;-7.40;99.90
13310;DHT22;6723;48.256;16.402;2024-01-10T03:14:44;-7.50;99.90
13310;DHT22;6723;48.256;16.402;2024-01-10T03:17:10;-7.40;99.90
13310;DHT22;6723;48.256;16.402;2024-01-10T03:19:39;-7.50;99.90
13310;DHT22;6723;48.256;16.402;2024-01-10T03:22:10;-7.50;99.90
13310;DHT22;6723;48.256;16.402;2024-01-10T03:24:39;-7.50;99.90
13310;DHT22;6723;48.256;16.402;2024-01-10T03:27:05;-7.50;99.90
13310;DHT22;6723;48.256;16.402;2024-01-10T03:29:32;-7.50;99.90
13310;DHT22;6723;48.256;16.402;2024-01-10T03:31:57;-7.50;99.90
13310;DHT22;6723;48.256;16.402;2024-01-10T03:34:23;-7.40;99.90
13310;DHT22;6723;48.256;16.402;2024-01-10T03:36:49;-7.30;99.90
13310;DHT22;6723;48.256;16.402;2024-01-10T03:39:15;-7.30;99.90
13310;DHT22;6723;48.256;16.402;2024-01-10T03:41:41;-7.30;99.90
13310;DHT22;6723;48.256;16.402;2024-01-10T03:44:07;-7.30;99.90
13310;DHT22;6723;48.256;16.402;2024-01-10T03:46:33;-7.20;99.90
13310;DHT22;6723;48.256;16.402;2024-01-10T03:48:59;-7.20;99.90
13310;DHT22;6723;48.256;16.402;2024-01-10T03:51:25;-7.20;99.90
13310;DHT22;6723;48.256;16.402;2024-01-10T03:53:52;-7.30;99.90
13310;DHT22;6723;48.256;16.402;2024-01-10T03:56:21;-7.30;99.90
13310;DHT22;6723;48.256;16.402;2024-01-10T03:58:46;-7.30;99.90
13310;DHT22;6723;48.256;16.402;2024-01-10T04:01:15;-7.30;99.90
13310;DHT22;6723;48.256;16.402;2024-01-10T04:03:42;-7.30;99.90
13310;DHT22;6723;48.256;16.402;2024-01-10T04:06:07;-7.30;99.90
13310;DHT22;6723;48.256;16.402;2024-01-10T04:08:33;-7.30;99.90
13310;DHT22;6723;48.256;16.402;2024-01-10T04:10:59;-7.40;99.90
13310;DHT22;6723;48.256;16.402;2024-01-10T04:13:25;-7.40;99.90
13310;DHT22;6723;48.256;16.402;2024-01-10T04:15:51;-7.40;99.90
13310;DHT22;6723;48.256;16.402;2024-01-10T04:18:17;-7.40;99.90
13310;DHT22;6723;48.256;16.402;2024-01-10T04:20:45;-7.40;99.90
13310;DHT22;6723;48.256;16.402;2024-01-10T04:23:12;-7.40;99.90
13310;DHT22;6723;48.256;16.402;2024-01-10T04:25:38;-7.30;99.90
13310;DHT22;6723;48.256;16.402;2024-01-10T04:28:05;-7.30;99.90
13310;DHT22;6723;48.256;16.402;2024-01-10T04:30:31;-7.40;99.90
13310;DHT22;6723;48.256;16.402;2024-01-10T04:32:56;-7.40;99.90
13310;DHT22;6723;48.256;16.402;2024-01-10T04:35:22;-7.40;99.90
13310;DHT22;6723;48.256;16.402;2024-01-10T04:37:48;-7.40;99.90
13310;DHT22;6723;48.256;16.402;2024-01-10T04:40:14;-7.50;99.90
13310;DHT22;6723;48.256;16.402;2024-01-10T04:42:40;-7.50;99.90
13310;DHT22;6723;48.256;16.402;2024-01-10T04:45:06;-7.50;99.90
13310;DHT22;6723;48.256;16.402;2024-01-10T04:47:36;-7.60;99.90
13310;DHT22;6723;48.256;16.402;2024-01-10T04:50:02;-7.50;99.90
13310;DHT22;6723;48.256;16.402;2024-01-10T04:52:27;-7.60;99.90
13310;DHT22;6723;48.256;16.402;2024-01-10T04:54:53;-7.70;99.90
13310;DHT22;6723;48.256;16.402;2024-01-10T04:57:19;-7.70;99.90
13310;DHT22;6723;48.256;16.402;2024-01-10T04:59:45;-7.70;99.90
13310;DHT22;6723;48.256;16.402;2024-01-10T05:02:14;-7.70;99.90
13310;DHT22;6723;48.256;16.402;2024-01-10T05:04:40;-7.80;99.90
13310;DHT22;6723;48.256;16.402;2024-01-10T05:07:06;-7.70;99.90
13310;DHT22;6723;48.256;16.402;2024-01-10T05:09:31;-7.80;99.90
13310;DHT22;6723;48.256;16.402;2024-01-10T05:11:57;-7.80;99.90
13310;DHT22;6723;48.256;16.402;2024-01-10T05:14:23;-7.70;99.90
13310;DHT22;6723;48.256;16.402;2024-01-10T05:16:49;-7.80;99.90
13310;DHT22;6723;48.256;16.402;2024-01-10T05:19:15;-7.70;99.90
13310;DHT22;6723;48.256;16.402;2024-01-10T05:21:41;-7.70;99.90
13310;DHT22;6723;48.256;16.402;2024-01-10T05:24:07;-7.70;99.90
13310;DHT22;6723;48.256;16.402;2024-01-10T05:26:33;-7.70;99.90
13310;DHT22;6723;48.256;16.402;2024-01-10T05:28:59;-7.70;99.90
13310;DHT22;6723;48.256;16.402;2024-01-10T05:31:24;-7.70;99.90
13310;DHT22;6723;48.256;16.402;2024-01-10T05:33:50;-7.70;99.90
13310;DHT22;6723;48.256;16.402;2024-01-10T05:36:16;-7.70;99.90
13310;DHT22;6723;48.256;16.402;2024-01-10T05:38:42;-7.70;99.90
13310;DHT22;6723;48.256;16.402;2024-01-10T05:41:10;-7.70;99.90
13310;DHT22;6723;48.256;16.402;2024-01-10T05:43:36;-7.70;99.90
13310;DHT22;6723;48.256;16.402;2024-01-10T05:46:02;-7.70;99.90
13310;DHT22;6723;48.256;16.402;2024-01-10T05:48:31;-7.70;99.90
13310;DHT22;6723;48.256;16.402;2024-01-10T05:50:57;-7.70;99.90
13310;DHT22;6723;48.256;16.402;2024-01-10T05:53:26;-7.60;99.90
13310;DHT22;6723;48.256;16.402;2024-01-10T05:55:52;-7.60;99.90
13310;DHT22;6723;48.256;16.402;2024-01-10T05:58:18;-7.50;99.90
13310;DHT22;6723;48.256;16.402;2024-01-10T06:00:47;-7.50;99.90
13310;DHT22;6723;48.256;16.402;2024-01-10T06:03:13;-7.60;99.90
13310;DHT22;6723;48.256;16.402;2024-01-10T06:05:39;-7.60;99.90
13310;DHT22;6723;48.256;16.402;2024-01-10T06:08:05;-7.50;99.90
13310;DHT22;6723;48.256;16.402;2024-01-10T06:10:31;-7.60;99.90
13310;DHT22;6723;48.256;16.402;2024-01-10T06:12:56;-7.60;99.90
13310;DHT22;6723;48.256;16.402;2024-01-10T06:15:22;-7.60;99.90
13310;DHT22;6723;48.256;16.402;2024-01-10T06:17:48;-7.60;99.90
13310;DHT22;6723;48.256;16.402;2024-01-10T06:20:15;-7.60;99.90
13310;DHT22;6723;48.256;16.402;2024-01-10T06:22:41;-7.60;99.90
13310;DHT22;6723;48.256;16.402;2024-01-10T06:25:07;-7.60;99.90
13310;DHT22;6723;48.256;16.402;2024-01-10T06:27:33;-7.50;99.90
13310;DHT22;6723;48.256;16.402;2024-01-10T06:29:59;-7.50;99.90
13310;DHT22;6723;48.256;16.402;2024-01-10T06:32:25;-7.40;99.90
13310;DHT22;6723;48.256;16.402;2024-01-10T06:34:51;-7.50;99.90
13310;DHT22;6723;48.256;16.402;2024-01-10T06:37:18;-7.40;99.90
13310;DHT22;6723;48.256;16.402;2024-01-10T06:39:44;-7.30;99.90
13310;DHT22;6723;48.256;16.402;2024-01-10T06:42:10;-7.30;99.90
13310;DHT22;6723;48.256;16.402;2024-01-10T06:44:38;-7.30;99.90
13310;DHT22;6723;48.256;16.402;2024-01-10T06:47:04;-7.30;99.90
13310;DHT22;6723;48.256;16.402;2024-01-10T06:49:30;-7.30;99.90
13310;DHT22;6723;48.256;16.402;2024-01-10T06:51:55;-7.40;99.90
13310;DHT22;6723;48.256;16.402;2024-01-10T06:54:21;-7.40;99.90
13310;DHT22;6723;48.256;16.402;2024-01-10T06:56:47;-7.30;99.90
13310;DHT22;6723;48.256;16.402;2024-01-10T06:59:13;-7.30;99.90
13310;DHT22;6723;48.256;16.402;2024-01-10T07:01:40;-7.30;99.90
13310;DHT22;6723;48.256;16.402;2024-01-10T07:04:05;-7.20;99.90
13310;DHT22;6723;48.256;16.402;2024-01-10T07:06:31;-7.20;99.90
13310;DHT22;6723;48.256;16.402;2024-01-10T07:08:57;-7.20;99.90
13310;DHT22;6723;48.256;16.402;2024-01-10T07:11:24;-7.10;99.90
13310;DHT22;6723;48.256;16.402;2024-01-10T07:13:50;-7.10;99.90
13310;DHT22;6723;48.256;16.402;2024-01-10T07:16:15;-7.00;99.90
13310;DHT22;6723;48.256;16.402;2024-01-10T07:18:42;-6.90;99.90
13310;DHT22;6723;48.256;16.402;2024-01-10T07:21:08;-6.80;99.90
13310;DHT22;6723;48.256;16.402;2024-01-10T07:23:34;-6.70;99.90
13310;DHT22;6723;48.256;16.402;2024-01-10T07:26:01;-6.60;99.90
13310;DHT22;6723;48.256;16.402;2024-01-10T07:28:27;-6.50;99.90
13310;DHT22;6723;48.256;16.402;2024-01-10T07:30:53;-6.40;99.90
13310;DHT22;6723;48.256;16.402;2024-01-10T07:33:19;-6.30;99.90
13310;DHT22;6723;48.256;16.402;2024-01-10T07:35:45;-6.20;99.90
13310;DHT22;6723;48.256;16.402;2024-01-10T07:38:11;-6.20;99.90
13310;DHT22;6723;48.256;16.402;2024-01-10T07:40:37;-6.10;99.90
13310;DHT22;6723;48.256;16.402;2024-01-10T07:43:03;-5.90;99.90
13310;DHT22;6723;48.256;16.402;2024-01-10T07:45:29;-5.60;99.90
13310;DHT22;6723;48.256;16.402;2024-01-10T07:47:55;-4.70;99.90
13310;DHT22;6723;48.256;16.402;2024-01-10T07:50:21;-3.90;99.90
13310;DHT22;6723;48.256;16.402;2024-01-10T07:52:49;-3.00;99.90
13310;DHT22;6723;48.256;16.402;2024-01-10T07:55:15;-2.00;99.90
13310;DHT22;6723;48.256;16.402;2024-01-10T07:57:41;-1.30;98.50
13310;DHT22;6723;48.256;16.402;2024-01-10T08:00:11;-0.60;95.20
13310;DHT22;6723;48.256;16.402;2024-01-10T08:02:37;0.60;92.90
13310;DHT22;6723;48.256;16.402;2024-01-10T08:05:04;1.00;92.40
13310;DHT22;6723;48.256;16.402;2024-01-10T08:07:33;1.20;91.00
13310;DHT22;6723;48.256;16.402;2024-01-10T08:10:05;1.40;90.60
13310;DHT22;6723;48.256;16.402;2024-01-10T08:12:31;1.90;90.50
13310;DHT22;6723;48.256;16.402;2024-01-10T08:14:57;2.50;88.90
13310;DHT22;6723;48.256;16.402;2024-01-10T08:17:23;2.70;87.20
13310;DHT22;6723;48.256;16.402;2024-01-10T08:19:49;3.00;86.60
13310;DHT22;6723;48.256;16.402;2024-01-10T08:22:15;3.20;83.10
13310;DHT22;6723;48.256;16.402;2024-01-10T08:24:41;3.20;83.30
13310;DHT22;6723;48.256;16.402;2024-01-10T08:27:07;3.80;82.90
13310;DHT22;6723;48.256;16.402;2024-01-10T08:29:33;4.50;81.90
13310;DHT22;6723;48.256;16.402;2024-01-10T08:31:59;4.70;80.10
13310;DHT22;6723;48.256;16.402;2024-01-10T08:34:25;4.90;78.40
13310;DHT22;6723;48.256;16.402;2024-01-10T08:36:52;4.90;79.30
13310;DHT22;6723;48.256;16.402;2024-01-10T08:39:19;5.10;78.60
13310;DHT22;6723;48.256;16.402;2024-01-10T08:41:45;5.20;77.70
13310;DHT22;6723;48.256;16.402;2024-01-10T08:44:11;5.60;76.20
13310;DHT22;6723;48.256;16.402;2024-01-10T08:46:37;5.80;76.70
13310;DHT22;6723;48.256;16.402;2024-01-10T08:49:03;6.10;75.50
13310;DHT22;6723;48.256;16.402;2024-01-10T08:51:29;6.00;76.90
13310;DHT22;6723;48.256;16.402;2024-01-10T08:53:55;5.90;74.40
13310;DHT22;6723;48.256;16.402;2024-01-10T08:56:22;7.20;74.90
13310;DHT22;6723;48.256;16.402;2024-01-10T08:58:48;7.10;72.90
13310;DHT22;6723;48.256;16.402;2024-01-10T09:01:14;7.30;72.50
13310;DHT22;6723;48.256;16.402;2024-01-10T09:03:39;7.50;71.00
13310;DHT22;6723;48.256;16.402;2024-01-10T09:06:05;8.00;72.20
13310;DHT22;6723;48.256;16.402;2024-01-10T09:08:34;7.90;71.80
13310;DHT22;6723;48.256;16.402;2024-01-10T09:10:59;7.80;70.60
13310;DHT22;6723;48.256;16.402;2024-01-10T09:13:25;7.90;71.60
13310;DHT22;6723;48.256;16.402;2024-01-10T09:15:51;8.30;70.70
13310;DHT22;6723;48.256;16.402;2024-01-10T09:18:17;8.00;70.10
13310;DHT22;6723;48.256;16.402;2024-01-10T09:20:43;8.00;70.90
13310;DHT22;6723;48.256;16.402;2024-01-10T09:23:08;8.90;69.50
13310;DHT22;6723;48.256;16.402;2024-01-10T09:25:36;8.90;67.80
13310;DHT22;6723;48.256;16.402;2024-01-10T09:28:03;8.60;68.40
13310;DHT22;6723;48.256;16.402;2024-01-10T09:30:30;8.50;69.50
13310;DHT22;6723;48.256;16.402;2024-01-10T09:32:56;8.80;70.10
13310;DHT22;6723;48.256;16.402;2024-01-10T09:35:22;9.70;69.20
13310;DHT22;6723;48.256;16.402;2024-01-10T09:37:48;8.70;67.30
13310;DHT22;6723;48.256;16.402;2024-01-10T09:40:16;9.30;69.30
13310;DHT22;6723;48.256;16.402;2024-01-10T09:42:44;9.40;67.90
13310;DHT22;6723;48.256;16.402;2024-01-10T09:45:10;9.30;66.20
13310;DHT22;6723;48.256;16.402;2024-01-10T09:47:40;8.50;68.20
13310;DHT22;6723;48.256;16.402;2024-01-10T09:50:09;9.60;69.00
13310;DHT22;6723;48.256;16.402;2024-01-10T09:52:53;9.20;68.80
13310;DHT22;6723;48.256;16.402;2024-01-10T09:55:25;9.60;68.20
13310;DHT22;6723;48.256;16.402;2024-01-10T09:57:53;9.40;67.40
13310;DHT22;6723;48.256;16.402;2024-01-10T10:00:19;9.10;67.90
13310;DHT22;6723;48.256;16.402;2024-01-10T10:02:46;9.40;67.60
13310;DHT22;6723;48.256;16.402;2024-01-10T10:05:16;10.00;66.00
13310;DHT22;6723;48.256;16.402;2024-01-10T10:07:51;10.50;65.80
13310;DHT22;6723;48.256;16.402;2024-01-10T10:10:20;11.10;63.40
13310;DHT22;6723;48.256;16.402;2024-01-10T10:12:48;11.50;62.80
13310;DHT22;6723;48.256;16.402;2024-01-10T10:15:16;10.80;62.80
13310;DHT22;6723;48.256;16.402;2024-01-10T10:17:43;9.40;62.20
13310;DHT22;6723;48.256;16.402;2024-01-10T10:20:27;10.20;62.60
13310;DHT22;6723;48.256;16.402;2024-01-10T10:25:34;9.50;65.50
13310;DHT22;6723;48.256;16.402;2024-01-10T10:28:01;9.40;65.20
13310;DHT22;6723;48.256;16.402;2024-01-10T10:30:29;9.60;65.50
13310;DHT22;6723;48.256;16.402;2024-01-10T10:32:55;9.60;66.50
13310;DHT22;6723;48.256;16.402;2024-01-10T10:35:22;10.30;66.10
13310;DHT22;6723;48.256;16.402;2024-01-10T10:37:52;10.10;65.00
13310;DHT22;6723;48.256;16.402;2024-01-10T10:40:19;10.20;65.90
13310;DHT22;6723;48.256;16.402;2024-01-10T10:42:47;10.40;65.60
13310;DHT22;6723;48.256;16.402;2024-01-10T10:45:17;10.50;65.60
13310;DHT22;6723;48.256;16.402;2024-01-10T10:47:46;10.30;64.40
13310;DHT22;6723;48.256;16.402;2024-01-10T10:50:20;10.50;65.80
13310;DHT22;6723;48.256;16.402;2024-01-10T10:52:48;11.00;65.20
13310;DHT22;6723;48.256;16.402;2024-01-10T10:55:18;11.40;64.80
13310;DHT22;6723;48.256;16.402;2024-01-10T10:57:48;11.30;64.00
13310;DHT22;6723;48.256;16.402;2024-01-10T11:00:19;11.30;63.60
13310;DHT22;6723;48.256;16.402;2024-01-10T11:02:54;11.10;64.60
13310;DHT22;6723;48.256;16.402;2024-01-10T11:05:25;10.80;64.00
13310;DHT22;6723;48.256;16.402;2024-01-10T11:07:51;11.50;64.10
13310;DHT22;6723;48.256;16.402;2024-01-10T11:10:24;11.80;62.70
13310;DHT22;6723;48.256;16.402;2024-01-10T11:16:15;11.20;62.90
13310;DHT22;6723;48.256;16.402;2024-01-10T11:22:00;11.40;62.40
13310;DHT22;6723;48.256;16.402;2024-01-10T11:24:31;12.10;63.80
13310;DHT22;6723;48.256;16.402;2024-01-10T11:27:17;12.90;63.60
13310;DHT22;6723;48.256;16.402;2024-01-10T11:29:45;12.20;61.50
13310;DHT22;6723;48.256;16.402;2024-01-10T11:32:19;13.00;61.60
13310;DHT22;6723;48.256;16.402;2024-01-10T11:34:57;10.80;60.90
13310;DHT22;6723;48.256;16.402;2024-01-10T11:37:28;10.90;62.80
13310;DHT22;6723;48.256;16.402;2024-01-10T11:39:55;10.90;62.40
13310;DHT22;6723;48.256;16.402;2024-01-10T11:42:43;10.50;64.00
13310;DHT22;6723;48.256;16.402;2024-01-10T11:45:09;11.20;63.50
13310;DHT22;6723;48.256;16.402;2024-01-10T11:47:39;11.40;63.90
13310;DHT22;6723;48.256;16.402;2024-01-10T11:50:08;11.80;64.20
13310;DHT22;6723;48.256;16.402;2024-01-10T11:52:36;11.20;64.70
13310;DHT22;6723;48.256;16.402;2024-01-10T11:55:03;11.10;64.60
13310;DHT22;6723;48.256;16.402;2024-01-10T11:57:30;11.70;64.20
13310;DHT22;6723;48.256;16.402;2024-01-10T11:59:58;11.30;64.30
13310;DHT22;6723;48.256;16.402;2024-01-10T12:02:31;11.30;63.90
13310;DHT22;6723;48.256;16.402;2024-01-10T12:04:58;11.30;64.20
13310;DHT22;6723;48.256;16.402;2024-01-10T12:07:24;10.90;63.40
13310;DHT22;6723;48.256;16.402;2024-01-10T12:09:51;10.80;65.40
13310;DHT22;6723;48.256;16.402;2024-01-10T12:12:17;11.20;63.60
13310;DHT22;6723;48.256;16.402;2024-01-10T12:14:43;10.90;63.70
13310;DHT22;6723;48.256;16.402;2024-01-10T12:17:12;10.20;63.70
13310;DHT22;6723;48.256;16.402;2024-01-10T12:19:38;9.40;65.00
13310;DHT22;6723;48.256;16.402;2024-01-10T12:22:05;9.70;67.10
13310;DHT22;6723;48.256;16.402;2024-01-10T12:24:31;10.10;65.50
13310;DHT22;6723;48.256;16.402;2024-01-10T12:26:56;9.50;67.40
13310;DHT22;6723;48.256;16.402;2024-01-10T12:29:22;10.20;67.00
13310;DHT22;6723;48.256;16.402;2024-01-10T12:31:51;10.00;66.40
13310;DHT22;6723;48.256;16.402;2024-01-10T12:34:17;9.90;67.30
13310;DHT22;6723;48.256;16.402;2024-01-10T12:36:43;9.70;66.40
13310;DHT22;6723;48.256;16.402;2024-01-10T12:39:09;9.30;67.60
13310;DHT22;6723;48.256;16.402;2024-01-10T12:41:36;9.70;68.00
13310;DHT22;6723;48.256;16.402;2024-01-10T12:44:03;9.30;67.60
13310;DHT22;6723;48.256;16.402;2024-01-10T12:46:31;9.50;67.90
13310;DHT22;6723;48.256;16.402;2024-01-10T12:49:03;9.40;67.90
13310;DHT22;6723;48.256;16.402;2024-01-10T12:51:31;9.80;68.80
13310;DHT22;6723;48.256;16.402;2024-01-10T12:53:58;10.10;68.00
13310;DHT22;6723;48.256;16.402;2024-01-10T12:56:24;9.10;68.10
13310;DHT22;6723;48.256;16.402;2024-01-10T12:58:50;9.10;69.90
13310;DHT22;6723;48.256;16.402;2024-01-10T13:01:16;9.60;70.10
13310;DHT22;6723;48.256;16.402;2024-01-10T13:03:42;9.60;69.00
13310;DHT22;6723;48.256;16.402;2024-01-10T13:06:09;9.90;69.20
13310;DHT22;6723;48.256;16.402;2024-01-10T13:08:36;10.00;67.80
13310;DHT22;6723;48.256;16.402;2024-01-10T13:11:02;9.00;68.90
13310;DHT22;6723;48.256;16.402;2024-01-10T13:13:37;8.20;70.40
13310;DHT22;6723;48.256;16.402;2024-01-10T13:16:03;7.10;71.40
13310;DHT22;6723;48.256;16.402;2024-01-10T13:18:29;6.70;73.00
13310;DHT22;6723;48.256;16.402;2024-01-10T13:20:55;6.30;74.10
13310;DHT22;6723;48.256;16.402;2024-01-10T13:23:21;6.00;75.30
13310;DHT22;6723;48.256;16.402;2024-01-10T13:25:51;5.80;76.30
13310;DHT22;6723;48.256;16.402;2024-01-10T13:28:18;5.60;76.50
13310;DHT22;6723;48.256;16.402;2024-01-10T13:30:44;5.20;77.40
13310;DHT22;6723;48.256;16.402;2024-01-10T13:33:10;5.10;78.60
13310;DHT22;6723;48.256;16.402;2024-01-10T13:35:36;4.80;79.10
13310;DHT22;6723;48.256;16.402;2024-01-10T13:38:05;4.70;79.70
13310;DHT22;6723;48.256;16.402;2024-01-10T13:40:31;4.20;80.50
13310;DHT22;6723;48.256;16.402;2024-01-10T13:43:00;4.20;81.20
13310;DHT22;6723;48.256;16.402;2024-01-10T13:45:28;3.90;81.70
13310;DHT22;6723;48.256;16.402;2024-01-10T13:47:54;3.60;83.10
13310;DHT22;6723;48.256;16.402;2024-01-10T13:50:19;3.40;83.90
13310;DHT22;6723;48.256;16.402;2024-01-10T13:52:45;3.30;84.90
13310;DHT22;6723;48.256;16.402;2024-01-10T13:55:11;3.20;85.30
13310;DHT22;6723;48.256;16.402;2024-01-10T13:57:37;3.20;86.40
13310;DHT22;6723;48.256;16.402;2024-01-10T14:00:03;3.20;87.20
13310;DHT22;6723;48.256;16.402;2024-01-10T14:02:29;3.20;87.40
13310;DHT22;6723;48.256;16.402;2024-01-10T14:04:55;3.10;87.30
13310;DHT22;6723;48.256;16.402;2024-01-10T14:07:24;3.10;90.40
13310;DHT22;6723;48.256;16.402;2024-01-10T14:09:51;2.80;89.20
13310;DHT22;6723;48.256;16.402;2024-01-10T14:12:20;2.70;89.90
13310;DHT22;6723;48.256;16.402;2024-01-10T14:14:46;2.70;90.00
13310;DHT22;6723;48.256;16.402;2024-01-10T14:17:17;2.60;90.60
13310;DHT22;6723;48.256;16.402;2024-01-10T14:19:43;2.30;91.00
13310;DHT22;6723;48.256;16.402;2024-01-10T14:22:10;2.20;91.20
13310;DHT22;6723;48.256;16.402;2024-01-10T14:24:36;2.20;91.60
13310;DHT22;6723;48.256;16.402;2024-01-10T14:27:02;2.20;91.60
13310;DHT22;6723;48.256;16.402;2024-01-10T14:29:28;2.10;92.10
13310;DHT22;6723;48.256;16.402;2024-01-10T14:31:53;2.10;92.80
13310;DHT22;6723;48.256;16.402;2024-01-10T14:34:19;2.10;93.40
13310;DHT22;6723;48.256;16.402;2024-01-10T14:36:48;1.90;93.80
13310;DHT22;6723;48.256;16.402;2024-01-10T14:39:14;1.70;94.30
13310;DHT22;6723;48.256;16.402;2024-01-10T14:41:41;1.60;95.10
13310;DHT22;6723;48.256;16.402;2024-01-10T14:44:07;1.50;95.30
13310;DHT22;6723;48.256;16.402;2024-01-10T14:46:33;1.30;96.10
13310;DHT22;6723;48.256;16.402;2024-01-10T14:48:59;1.20;96.30
13310;DHT22;6723;48.256;16.402;2024-01-10T14:51:28;1.00;97.00
13310;DHT22;6723;48.256;16.402;2024-01-10T14:53:53;1.10;97.50
13310;DHT22;6723;48.256;16.402;2024-01-10T14:56:22;0.90;97.70
13310;DHT22;6723;48.256;16.402;2024-01-10T14:58:48;0.90;98.10
13310;DHT22;6723;48.256;16.402;2024-01-10T15:01:16;0.80;98.20
13310;DHT22;6723;48.256;16.402;2024-01-10T15:03:42;0.80;98.30
13310;DHT22;6723;48.256;16.402;2024-01-10T15:06:09;0.60;98.50
13310;DHT22;6723;48.256;16.402;2024-01-10T15:08:35;0.60;98.90
13310;DHT22;6723;48.256;16.402;2024-01-10T15:11:02;0.60;99.00
13310;DHT22;6723;48.256;16.402;2024-01-10T15:13:28;0.50;98.90
13310;DHT22;6723;48.256;16.402;2024-01-10T15:15:53;0.50;99.30
13310;DHT22;6723;48.256;16.402;2024-01-10T15:18:20;0.50;99.40
13310;DHT22;6723;48.256;16.402;2024-01-10T15:20:46;0.60;99.50
13310;DHT22;6723;48.256;16.402;2024-01-10T15:23:12;0.50;99.30
13310;DHT22;6723;48.256;16.402;2024-01-10T15:25:38;0.50;99.40
13310;DHT22;6723;48.256;16.402;2024-01-10T15:28:04;0.40;99.40
13310;DHT22;6723;48.256;16.402;2024-01-10T15:30:30;0.40;99.60
13310;DHT22;6723;48.256;16.402;2024-01-10T15:32:58;0.30;99.50
13310;DHT22;6723;48.256;16.402;2024-01-10T15:35:25;0.30;99.80
13310;DHT22;6723;48.256;16.402;2024-01-10T15:37:51;0.10;99.90
13310;DHT22;6723;48.256;16.402;2024-01-10T15:40:18;0.20;99.90
13310;DHT22;6723;48.256;16.402;2024-01-10T15:42:44;0.10;99.90